Time;durP1;ratioP1;P1;durP2;ratioP2;P2;SDS_P1;SDS_P2;PMS_P1;PMS_P2;Temp;Humidity;BMP_temperature;BMP_pressure;BME280_temperature;BME280_humidity;BME280_pressure;Samples;Min_cycle;Max_cycle;Signal;HPM_P1;HPM_P2
2023/03/19 00:02:03;;;;;;;2.40;1.50;;;14.80;28.90;;;;;;5018944;28;20434;-71
2023/03/19 00:04:29;;;;;;;2.63;1.63;;;14.70;29.30;;;;;;5030909;28;20442;-71
2023/03/19 00:06:55;;;;;;;1.97;1.20;;;14.50;28.70;;;;;;5030052;28;20455;-70
2023/03/19 00:09:20;;;;;;;1.93;1.17;;;14.90;28.40;;;;;;5030820;28;20181;-70
2023/03/19 00:11:47;;;;;;;2.10;1.30;;;14.70;28.80;;;;;;5028595;28;20203;-70
2023/03/19 00:14:14;;;;;;;2.00;1.17;;;14.60;28.10;;;;;;5021532;28;20179;-71
2023/03/19 00:16:39;;;;;;;2.13;1.30;;;14.70;28.50;;;;;;5029089;28;20447;-71
2023/03/19 00:19:06;;;;;;;2.40;1.50;;;14.60;28.10;;;;;;5032530;28;20451;-71
2023/03/19 00:21:31;;;;;;;2.27;1.40;;;14.90;27.40;;;;;;5032397;28;20190;-71
2023/03/19 00:24:00;;;;;;;2.30;1.50;;;14.90;28.30;;;;;;5026257;28;20456;-71
2023/03/19 00:26:27;;;;;;;2.00;1.20;;;15.00;27.80;;;;;;5030073;28;20641;-71
2023/03/19 00:28:54;;;;;;;2.43;1.47;;;14.80;29.10;;;;;;5031780;28;20480;-71
2023/03/19 00:31:21;;;;;;;2.10;1.37;;;14.80;29.30;;;;;;5031768;28;20448;-71
2023/03/19 00:33:46;;;;;;;2.20;1.40;;;15.00;30.80;;;;;;5032278;28;20424;-70
2023/03/19 00:36:12;;;;;;;1.97;1.20;;;14.70;29.50;;;;;;5031263;28;20970;-71
2023/03/19 00:38:38;;;;;;;2.40;1.40;;;14.60;29.30;;;;;;5029864;28;20205;-71
2023/03/19 00:41:06;;;;;;;2.70;1.77;;;14.70;28.80;;;;;;5031561;28;20462;-70
2023/03/19 00:43:31;;;;;;;2.10;1.27;;;14.80;29.00;;;;;;5012621;28;20175;-71
2023/03/19 00:45:57;;;;;;;4.90;1.67;;;14.60;29.80;;;;;;5027527;28;20956;-70
2023/03/19 00:48:23;;;;;;;2.20;1.40;;;14.90;28.80;;;;;;5031090;28;20206;-69
2023/03/19 00:50:49;;;;;;;2.20;1.40;;;14.70;29.70;;;;;;5049789;22;20479;-75
2023/03/19 00:53:16;;;;;;;2.13;1.37;;;14.90;28.20;;;;;;5028927;28;20576;-74
2023/03/19 00:55:41;;;;;;;2.30;1.40;;;15.20;27.90;;;;;;5033475;28;20548;-74
2023/03/19 00:58:09;;;;;;;2.70;1.63;;;14.90;27.80;;;;;;5030240;28;21044;-76
2023/03/19 01:00:35;;;;;;;2.23;1.40;;;14.80;28.60;;;;;;5029850;28;20530;-75
2023/03/19 01:03:01;;;;;;;2.20;1.47;;;14.60;28.40;;;;;;5028534;28;20934;-76
2023/03/19 01:05:26;;;;;;;2.33;1.33;;;14.80;29.50;;;;;;5030782;28;20410;-76
2023/03/19 01:07:52;;;;;;;3.13;1.77;;;14.40;29.10;;;;;;5032221;28;20256;-75
2023/03/19 01:10:23;;;;;;;2.37;1.57;;;14.70;29.00;;;;;;5031806;28;20553;-76
2023/03/19 01:12:49;;;;;;;2.20;1.50;;;14.70;29.20;;;;;;5027983;28;20436;-75
2023/03/19 01:15:15;;;;;;;2.10;1.23;;;14.20;28.00;;;;;;5030746;28;20926;-76
2023/03/19 01:17:41;;;;;;;2.00;1.40;;;14.20;29.00;;;;;;5031621;28;20554;-75
2023/03/19 01:20:12;;;;;;;2.70;2.00;;;14.40;30.00;;;;;;5032283;28;20260;-75
2023/03/19 01:22:40;;;;;;;2.10;1.30;;;14.10;28.70;;;;;;5028821;28;20791;-75
2023/03/19 01:25:06;;;;;;;2.20;1.30;;;13.50;28.70;;;;;;5029668;28;20433;-75
2023/03/19 01:27:32;;;;;;;2.13;1.30;;;13.60;29.20;;;;;;5023244;28;20435;-75
2023/03/19 01:29:58;;;;;;;2.30;1.47;;;13.50;29.50;;;;;;5032093;28;20942;-76
2023/03/19 01:32:24;;;;;;;2.00;1.20;;;13.60;29.30;;;;;;5028917;28;20234;-75
2023/03/19 01:34:49;;;;;;;2.43;1.50;;;13.70;29.50;;;;;;5026161;28;20186;-76
2023/03/19 01:37:15;;;;;;;6.23;1.87;;;14.10;29.90;;;;;;5030368;28;20486;-75
2023/03/19 01:39:41;;;;;;;4.63;2.23;;;14.30;29.00;;;;;;5031661;28;20698;-75
2023/03/19 01:42:07;;;;;;;2.10;1.23;;;14.50;28.40;;;;;;5030621;28;20192;-75
2023/03/19 01:44:36;;;;;;;2.30;1.43;;;14.40;29.10;;;;;;5029277;28;20638;-75
2023/03/19 01:47:17;;;;;;;2.53;1.43;;;14.40;29.10;;;;;;5022391;28;20508;-74
2023/03/19 01:49:46;;;;;;;2.30;1.40;;;14.50;29.00;;;;;;5024191;28;20415;-76
2023/03/19 01:52:14;;;;;;;2.43;1.80;;;14.60;29.20;;;;;;5031002;28;20446;-75
2023/03/19 01:54:40;;;;;;;2.10;1.30;;;14.50;31.70;;;;;;5029688;28;20973;-75
2023/03/19 01:57:10;;;;;;;2.10;1.50;;;14.30;32.10;;;;;;5028299;28;20438;-76
2023/03/19 01:59:42;;;;;;;2.40;1.40;;;14.40;31.40;;;;;;5031505;28;20412;-76
2023/03/19 02:02:29;;;;;;;2.10;1.30;;;14.20;33.70;;;;;;5028952;28;20468;-76
2023/03/19 02:05:08;;;;;;;2.13;1.33;;;14.40;32.10;;;;;;5019663;28;21008;-76
2023/03/19 02:07:36;;;;;;;2.20;1.37;;;14.70;33.20;;;;;;5025858;28;20820;-75
2023/03/19 02:10:06;;;;;;;2.33;1.40;;;14.70;32.80;;;;;;5029993;28;20486;-75
2023/03/19 02:12:32;;;;;;;2.40;1.40;;;14.80;31.70;;;;;;5030053;28;20443;-75
2023/03/19 02:14:58;;;;;;;2.00;1.20;;;14.70;33.10;;;;;;5027672;28;20464;-75
2023/03/19 02:17:24;;;;;;;2.10;1.27;;;14.80;30.50;;;;;;5029513;28;20995;-75
2023/03/19 02:20:23;;;;;;;2.23;1.43;;;14.90;30.60;;;;;;5029210;28;20439;-75
2023/03/19 02:23:13;;;;;;;2.20;1.40;;;15.00;32.00;;;;;;5012638;28;20459;-76
2023/03/19 02:25:47;;;;;;;2.03;1.30;;;15.00;33.80;;;;;;5029789;28;20392;-75
2023/03/19 02:28:17;;;;;;;2.40;1.53;;;14.70;36.00;;;;;;5025208;28;21020;-75
2023/03/19 02:30:44;;;;;;;2.00;1.20;;;14.60;37.80;;;;;;5029590;28;20449;-75
2023/03/19 02:33:19;;;;;;;2.03;1.20;;;14.70;35.30;;;;;;5031658;28;20426;-76
2023/03/19 02:35:49;;;;;;;2.10;1.20;;;13.80;40.50;;;;;;5036300;28;20462;-76
2023/03/19 02:38:15;;;;;;;10.70;2.37;;;12.90;44.00;;;;;;5034787;28;20460;-75
2023/03/19 02:41:03;;;;;;;2.17;1.40;;;12.70;47.70;;;;;;5034830;28;20436;-75
2023/03/19 02:43:30;;;;;;;2.00;1.20;;;12.50;46.20;;;;;;5030694;28;20451;-75
2023/03/19 02:45:57;;;;;;;2.00;1.20;;;12.80;48.20;;;;;;5030516;28;20439;-74
2023/03/19 02:48:23;;;;;;;2.33;1.40;;;13.10;46.00;;;;;;5034293;28;20431;-75
2023/03/19 02:50:50;;;;;;;2.40;1.50;;;13.40;43.90;;;;;;5032837;28;20483;-75
2023/03/19 02:53:15;;;;;;;2.00;1.20;;;14.30;41.90;;;;;;5032622;28;20446;-76
2023/03/19 02:55:42;;;;;;;2.20;1.50;;;14.20;40.30;;;;;;5031747;28;20437;-76
2023/03/19 02:58:07;;;;;;;2.40;1.40;;;14.30;41.30;;;;;;5034749;28;20192;-75
2023/03/19 03:00:33;;;;;;;1.93;1.20;;;14.20;40.40;;;;;;5033821;28;20462;-76
2023/03/19 03:03:00;;;;;;;1.90;1.10;;;14.30;41.00;;;;;;5031995;28;20188;-75
2023/03/19 03:05:25;;;;;;;2.10;1.30;;;14.10;44.20;;;;;;5024485;28;20185;-75
2023/03/19 03:07:51;;;;;;;2.20;1.33;;;13.70;44.50;;;;;;5034721;28;20417;-75
2023/03/19 03:10:17;;;;;;;2.00;1.27;;;13.70;45.70;;;;;;5032344;28;20185;-75
2023/03/19 03:12:43;;;;;;;2.47;1.77;;;13.40;46.70;;;;;;5031379;28;20187;-75
2023/03/19 03:15:09;;;;;;;2.00;1.30;;;13.20;47.70;;;;;;5024957;28;20535;-76
2023/03/19 03:17:39;;;;;;;2.53;1.83;;;13.50;47.70;;;;;;5033660;28;20268;-74
2023/03/19 03:20:06;;;;;;;2.10;1.47;;;13.90;45.80;;;;;;5033735;28;20471;-74
2023/03/19 03:22:32;;;;;;;2.00;1.30;;;14.10;44.80;;;;;;5037273;28;20459;-76
2023/03/19 03:24:58;;;;;;;1.90;1.10;;;14.40;45.60;;;;;;5034560;28;20440;-76
2023/03/19 03:27:23;;;;;;;1.90;1.20;;;14.20;44.70;;;;;;5031927;28;20525;-76
2023/03/19 03:29:49;;;;;;;2.03;1.33;;;14.20;45.20;;;;;;5033110;28;20307;-75
2023/03/19 03:32:15;;;;;;;2.00;1.30;;;14.20;44.50;;;;;;5033567;28;20196;-75
2023/03/19 03:34:41;;;;;;;2.03;1.27;;;14.40;45.70;;;;;;5025835;28;20229;-76
2023/03/19 03:37:07;;;;;;;2.00;1.20;;;13.30;48.50;;;;;;5032307;28;20926;-76
2023/03/19 03:39:32;;;;;;;2.00;1.30;;;13.40;48.90;;;;;;5032149;28;20180;-76
2023/03/19 03:41:58;;;;;;;2.10;1.40;;;13.70;47.10;;;;;;5032328;28;20212;-76
2023/03/19 03:44:23;;;;;;;1.90;1.20;;;13.60;46.90;;;;;;5033549;28;20674;-75
2023/03/19 03:46:49;;;;;;;2.00;1.47;;;13.60;47.30;;;;;;5033011;28;20225;-76
2023/03/19 03:49:15;;;;;;;2.50;1.40;;;13.70;46.50;;;;;;5032171;28;20186;-76
2023/03/19 03:51:40;;;;;;;2.00;1.20;;;13.70;46.10;;;;;;5031495;28;20220;-76
2023/03/19 03:54:06;;;;;;;2.00;1.30;;;13.70;46.50;;;;;;5033535;28;20172;-77
2023/03/19 03:56:32;;;;;;;1.90;1.20;;;13.90;46.00;;;;;;5033944;28;20488;-76
2023/03/19 03:58:58;;;;;;;1.90;1.10;;;13.80;46.40;;;;;;5032227;28;20563;-76
2023/03/19 04:01:24;;;;;;;2.00;1.20;;;13.80;46.70;;;;;;5029793;28;20462;-74
2023/03/19 04:03:50;;;;;;;1.97;1.17;;;13.90;46.30;;;;;;5028741;28;20607;-75
2023/03/19 04:06:18;;;;;;;2.20;1.40;;;14.10;46.60;;;;;;5031521;28;20440;-77
2023/03/19 04:08:44;;;;;;;2.03;1.23;;;14.00;46.40;;;;;;5033013;28;20188;-76
2023/03/19 04:11:10;;;;;;;2.10;1.33;;;14.10;46.40;;;;;;5031670;28;20459;-77
2023/03/19 04:13:36;;;;;;;2.10;1.30;;;14.20;46.60;;;;;;5025179;28;20271;-76
2023/03/19 04:16:06;;;;;;;3.70;2.27;;;14.10;46.50;;;;;;5033693;28;20454;-76
2023/03/19 04:18:32;;;;;;;2.40;1.60;;;14.10;47.00;;;;;;5028116;28;20215;-76
2023/03/19 04:20:58;;;;;;;2.00;1.20;;;14.00;47.20;;;;;;5033116;28;20427;-77
2023/03/19 04:23:24;;;;;;;2.07;1.27;;;14.00;47.50;;;;;;5031381;28;20802;-77
2023/03/19 04:25:50;;;;;;;2.00;1.20;;;14.10;47.30;;;;;;5032813;28;20177;-77
2023/03/19 04:28:16;;;;;;;2.77;1.60;;;14.20;46.50;;;;;;5030061;28;20478;-73
2023/03/19 04:30:44;;;;;;;2.00;1.13;;;14.20;46.60;;;;;;5033045;28;20204;-77
2023/03/19 04:33:10;;;;;;;2.57;1.63;;;14.10;47.40;;;;;;5030970;28;20436;-77
2023/03/19 04:35:36;;;;;;;2.63;1.57;;;14.20;47.50;;;;;;5032600;28;20921;-77
2023/03/19 04:38:02;;;;;;;2.00;1.13;;;14.30;46.50;;;;;;5030119;28;20475;-77
2023/03/19 04:40:28;;;;;;;2.00;1.20;;;14.40;45.90;;;;;;5024073;28;20448;-77
2023/03/19 04:42:54;;;;;;;2.10;1.27;;;14.30;46.80;;;;;;5026346;28;21095;-77
2023/03/19 04:45:19;;;;;;;2.00;1.20;;;14.10;47.60;;;;;;5031304;28;20169;-76
2023/03/19 04:47:45;;;;;;;2.03;1.17;;;14.00;48.60;;;;;;5032976;28;20259;-76
2023/03/19 04:50:12;;;;;;;2.00;1.10;;;13.80;49.80;;;;;;5028990;28;20620;-76
2023/03/19 04:52:38;;;;;;;1.90;1.10;;;13.80;49.70;;;;;;5030735;28;20173;-75
2023/03/19 04:55:06;;;;;;;3.50;1.70;;;13.90;49.40;;;;;;5030878;28;20431;-76
2023/03/19 04:57:32;;;;;;;2.00;1.20;;;14.00;48.90;;;;;;5036543;28;20507;-75
2023/03/19 04:59:58;;;;;;;2.10;1.20;;;14.20;47.90;;;;;;5029938;28;20513;-76
2023/03/19 05:02:24;;;;;;;2.27;1.47;;;14.30;47.30;;;;;;5027342;28;20491;-76
2023/03/19 05:04:49;;;;;;;2.10;1.30;;;14.60;45.90;;;;;;5032453;28;20184;-75
2023/03/19 05:07:15;;;;;;;2.10;1.30;;;14.50;46.50;;;;;;5032054;28;20178;-76
2023/03/19 05:09:42;;;;;;;2.30;1.50;;;14.20;46.50;;;;;;5031426;28;20691;-75
2023/03/19 05:12:09;;;;;;;2.67;1.40;;;14.10;48.00;;;;;;5028112;28;20192;-75
2023/03/19 05:14:35;;;;;;;2.10;1.30;;;14.10;48.20;;;;;;5032032;28;20435;-75
2023/03/19 05:17:01;;;;;;;2.10;1.30;;;14.20;47.60;;;;;;5031797;28;20437;-76
2023/03/19 05:19:27;;;;;;;2.10;1.27;;;14.10;48.30;;;;;;5032277;28;20894;-75
2023/03/19 05:21:53;;;;;;;2.40;1.57;;;13.90;48.70;;;;;;5027222;28;20495;-76
2023/03/19 05:24:18;;;;;;;2.07;1.33;;;13.90;49.40;;;;;;5030077;28;20189;-75
2023/03/19 05:26:45;;;;;;;2.10;1.30;;;14.00;48.30;;;;;;5032176;28;20603;-75
2023/03/19 05:29:11;;;;;;;2.00;1.20;;;14.00;48.10;;;;;;5032171;28;20169;-75
2023/03/19 05:31:37;;;;;;;2.00;1.10;;;14.10;48.20;;;;;;5029297;28;20795;-75
2023/03/19 05:34:03;;;;;;;1.90;1.10;;;14.00;48.40;;;;;;5028710;28;20176;-76
2023/03/19 05:36:29;;;;;;;2.00;1.20;;;13.70;48.60;;;;;;5031562;28;20415;-75
2023/03/19 05:38:55;;;;;;;2.00;1.20;;;13.50;49.30;;;;;;5031373;28;20471;-75
2023/03/19 05:41:20;;;;;;;2.00;1.10;;;13.50;49.40;;;;;;5031779;28;20569;-75
2023/03/19 05:43:46;;;;;;;2.10;1.20;;;13.60;49.10;;;;;;5024997;28;20653;-73
2023/03/19 05:46:12;;;;;;;2.10;1.30;;;13.80;48.80;;;;;;5031481;28;20179;-76
2023/03/19 05:48:37;;;;;;;2.00;1.30;;;14.00;48.90;;;;;;5031298;28;20636;-76
2023/03/19 05:51:03;;;;;;;2.10;1.27;;;14.00;46.90;;;;;;5030108;28;20456;-75
2023/03/19 05:53:29;;;;;;;2.07;1.20;;;14.00;47.50;;;;;;5029044;28;20540;-76
2023/03/19 05:55:54;;;;;;;2.00;1.10;;;13.90;47.70;;;;;;5031197;28;20501;-75
2023/03/19 05:58:20;;;;;;;2.00;1.20;;;14.00;48.00;;;;;;5032806;28;20709;-76
2023/03/19 06:00:47;;;;;;;2.00;1.20;;;14.40;48.60;;;;;;5031554;28;20193;-75
2023/03/19 06:03:13;;;;;;;1.90;1.10;;;14.20;48.00;;;;;;5027395;28;20196;-75
2023/03/19 06:05:38;;;;;;;2.23;1.57;;;14.20;48.10;;;;;;5030466;28;21064;-76
2023/03/19 06:08:05;;;;;;;2.10;1.33;;;14.40;46.50;;;;;;5031705;28;20436;-75
2023/03/19 06:10:30;;;;;;;2.03;1.23;;;14.50;44.90;;;;;;5031376;28;20202;-76
2023/03/19 06:12:56;;;;;;;2.10;1.33;;;14.50;45.60;;;;;;5030437;28;20427;-76
2023/03/19 06:15:21;;;;;;;1.90;1.10;;;14.40;46.80;;;;;;5027057;28;20199;-75
2023/03/19 06:17:47;;;;;;;2.07;1.20;;;13.70;48.90;;;;;;5030349;28;20214;-75
2023/03/19 06:20:13;;;;;;;2.50;1.80;;;13.70;49.30;;;;;;5031299;28;20174;-76
2023/03/19 06:22:39;;;;;;;2.00;1.30;;;13.90;48.50;;;;;;5030921;28;20179;-75
2023/03/19 06:25:05;;;;;;;2.00;1.20;;;14.20;47.60;;;;;;5028134;28;20169;-75
2023/03/19 06:27:31;;;;;;;2.20;1.43;;;14.00;46.90;;;;;;5030616;28;20441;-76
2023/03/19 06:29:56;;;;;;;1.97;1.30;;;14.20;49.00;;;;;;5034960;28;20453;-75
2023/03/19 06:32:22;;;;;;;1.97;1.30;;;13.10;51.50;;;;;;5030379;28;20261;-75
2023/03/19 06:34:47;;;;;;;1.90;1.17;;;12.80;56.70;;;;;;5029638;28;20173;-75
2023/03/19 06:37:13;;;;;;;1.90;1.13;;;12.10;59.70;;;;;;5028223;28;20188;-75
2023/03/19 06:39:38;;;;;;;1.90;1.20;;;12.20;59.80;;;;;;5030510;28;20274;-75
2023/03/19 06:42:04;;;;;;;2.17;1.40;;;12.90;55.20;;;;;;5029070;28;20197;-75
2023/03/19 06:44:30;;;;;;;2.17;1.30;;;13.30;51.70;;;;;;5029363;28;20186;-76
2023/03/19 06:46:56;;;;;;;2.90;1.90;;;13.80;48.80;;;;;;5029602;28;20424;-76
2023/03/19 06:49:21;;;;;;;1.90;1.20;;;14.20;46.40;;;;;;5030155;28;20182;-76
2023/03/19 06:51:47;;;;;;;2.10;1.30;;;14.40;46.10;;;;;;5029604;28;20226;-75
2023/03/19 06:54:13;;;;;;;2.10;1.33;;;14.50;45.20;;;;;;5030332;28;20188;-76
2023/03/19 06:56:38;;;;;;;2.20;1.40;;;14.50;45.00;;;;;;5029380;28;20212;-75
2023/03/19 06:59:04;;;;;;;2.50;1.70;;;14.60;43.20;;;;;;5029394;28;20263;-76
2023/03/19 07:01:30;;;;;;;2.07;1.40;;;14.70;43.70;;;;;;5030989;28;20664;-74
2023/03/19 07:03:56;;;;;;;1.90;1.20;;;14.70;44.90;;;;;;5029243;28;20176;-75
2023/03/19 07:06:22;;;;;;;2.00;1.70;;;14.60;46.00;;;;;;5031059;28;20420;-75
2023/03/19 07:08:47;;;;;;;2.23;1.40;;;14.70;46.00;;;;;;5028043;28;20433;-75
2023/03/19 07:11:13;;;;;;;1.80;1.20;;;14.60;46.20;;;;;;5030832;28;20552;-75
2023/03/19 07:13:39;;;;;;;2.37;1.30;;;14.60;46.70;;;;;;5029734;28;20257;-75
2023/03/19 07:16:05;;;;;;;1.90;1.20;;;14.80;46.40;;;;;;5030238;28;20448;-75
2023/03/19 07:18:31;;;;;;;2.00;1.30;;;14.50;47.00;;;;;;5031445;28;20207;-74
2023/03/19 07:20:56;;;;;;;1.90;1.20;;;14.90;47.70;;;;;;5032583;28;20456;-76
2023/03/19 07:23:22;;;;;;;2.10;1.40;;;14.60;47.20;;;;;;5034268;28;20305;-75
2023/03/19 07:25:48;;;;;;;1.93;1.33;;;14.50;47.70;;;;;;5034366;28;20163;-75
2023/03/19 07:28:14;;;;;;;2.37;1.87;;;14.30;49.70;;;;;;5032021;28;20177;-75
2023/03/19 07:30:39;;;;;;;1.83;1.30;;;14.80;50.10;;;;;;5031181;28;20456;-75
2023/03/19 07:33:06;;;;;;;1.80;1.20;;;14.70;48.80;;;;;;5033850;28;20426;-75
2023/03/19 07:35:32;;;;;;;1.80;1.20;;;15.00;47.10;;;;;;5034065;28;20178;-76
2023/03/19 07:37:59;;;;;;;1.80;1.23;;;15.00;45.00;;;;;;5032427;28;20542;-75
2023/03/19 07:40:25;;;;;;;1.90;1.30;;;14.90;46.00;;;;;;5029975;28;20447;-74
2023/03/19 07:42:51;;;;;;;1.90;1.27;;;14.90;45.40;;;;;;5032309;28;20431;-76
2023/03/19 07:45:17;;;;;;;1.77;1.10;;;15.10;43.70;;;;;;5033817;28;20488;-75
2023/03/19 07:47:43;;;;;;;1.80;1.20;;;15.10;46.90;;;;;;5033395;28;20531;-76
2023/03/19 07:50:09;;;;;;;1.77;1.13;;;15.30;44.40;;;;;;5031230;28;20840;-76
2023/03/19 07:52:35;;;;;;;2.10;1.40;;;15.20;41.20;;;;;;5031866;28;20560;-76
2023/03/19 07:55:01;;;;;;;1.90;1.30;;;15.20;42.50;;;;;;5034233;28;20412;-75
2023/03/19 07:57:27;;;;;;;1.80;1.10;;;15.30;40.80;;;;;;5033423;28;20923;-75
2023/03/19 07:59:52;;;;;;;1.90;1.30;;;15.50;39.50;;;;;;5032168;28;20186;-76
2023/03/19 08:02:18;;;;;;;1.70;1.10;;;15.50;39.10;;;;;;5030578;28;20198;-75
2023/03/19 08:04:44;;;;;;;1.80;1.20;;;16.10;38.30;;;;;;5035600;28;20951;-74
2023/03/19 08:07:11;;;;;;;1.97;1.30;;;16.00;37.50;;;;;;5032435;28;20427;-75
2023/03/19 08:09:38;;;;;;;1.83;1.20;;;16.20;37.10;;;;;;5033118;28;20227;-75
2023/03/19 08:12:05;;;;;;;1.90;1.30;;;15.80;36.20;;;;;;5025844;28;20461;-75
2023/03/19 08:14:32;;;;;;;1.87;1.30;;;15.70;35.70;;;;;;5030005;28;20442;-76
2023/03/19 08:16:57;;;;;;;2.10;1.47;;;16.00;33.70;;;;;;5033152;28;20492;-75
2023/03/19 08:19:23;;;;;;;2.17;1.37;;;16.20;35.10;;;;;;5032488;28;20543;-75
2023/03/19 08:21:48;;;;;;;1.80;1.17;;;16.80;34.30;;;;;;5029894;28;20573;-75
2023/03/19 08:24:14;;;;;;;1.90;1.20;;;17.10;33.00;;;;;;5031672;28;20541;-76
2023/03/19 08:26:39;;;;;;;1.80;1.20;;;16.60;32.60;;;;;;5032372;28;20255;-75
2023/03/19 08:29:05;;;;;;;1.90;1.23;;;16.50;34.00;;;;;;5033366;28;20185;-75
2023/03/19 08:31:31;;;;;;;2.20;1.20;;;16.90;30.20;;;;;;5029349;28;20640;-76
2023/03/19 08:33:59;;;;;;;1.90;1.30;;;17.10;32.00;;;;;;5030757;28;20438;-75
2023/03/19 08:36:25;;;;;;;1.80;1.20;;;17.10;31.20;;;;;;5035352;28;20184;-75
2023/03/19 08:38:53;;;;;;;1.83;1.20;;;16.70;31.20;;;;;;5032251;28;20505;-75
2023/03/19 08:41:20;;;;;;;1.90;1.30;;;17.20;30.60;;;;;;5032148;28;20466;-74
2023/03/19 08:43:45;;;;;;;2.50;1.60;;;17.40;30.20;;;;;;5026055;28;20472;-76
2023/03/19 08:46:11;;;;;;;2.00;1.30;;;17.10;30.70;;;;;;5022712;28;20456;-75
2023/03/19 08:48:36;;;;;;;1.90;1.30;;;17.60;29.20;;;;;;5026470;28;20180;-74
2023/03/19 08:51:05;;;;;;;1.90;1.30;;;17.50;29.60;;;;;;5029674;28;20224;-77
2023/03/19 08:53:31;;;;;;;2.67;1.40;;;17.20;30.00;;;;;;5029820;28;20556;-75
2023/03/19 08:56:00;;;;;;;1.80;1.20;;;17.00;29.90;;;;;;5031386;28;20432;-76
2023/03/19 08:58:27;;;;;;;1.83;1.17;;;16.70;30.10;;;;;;5028701;28;20482;-78
2023/03/19 09:00:53;;;;;;;1.87;1.30;;;16.70;30.50;;;;;;5031178;28;20457;-76
2023/03/19 09:03:20;;;;;;;1.90;1.30;;;17.10;30.60;;;;;;5026615;28;20482;-75
2023/03/19 09:05:46;;;;;;;2.00;1.30;;;17.40;28.80;;;;;;5030086;28;20467;-73
2023/03/19 09:08:12;;;;;;;1.80;1.20;;;17.40;29.20;;;;;;5032094;28;20426;-75
2023/03/19 09:10:38;;;;;;;1.90;1.30;;;17.50;29.60;;;;;;5031495;28;20480;-74
2023/03/19 09:13:04;;;;;;;2.00;1.37;;;17.60;29.50;;;;;;5031163;28;20437;-74
2023/03/19 09:15:30;;;;;;;1.90;1.23;;;17.30;30.00;;;;;;5026445;28;20943;-74
2023/03/19 09:17:56;;;;;;;1.90;1.30;;;17.40;30.10;;;;;;5032188;28;20461;-73
2023/03/19 09:20:22;;;;;;;1.90;1.30;;;17.40;28.90;;;;;;5028675;28;20203;-75
2023/03/19 09:22:47;;;;;;;2.00;1.40;;;18.00;28.10;;;;;;5029288;28;20202;-74
2023/03/19 09:25:13;;;;;;;1.70;1.10;;;18.00;27.70;;;;;;5027358;28;20668;-75
2023/03/19 09:27:39;;;;;;;1.83;1.30;;;18.00;27.70;;;;;;5028182;28;20210;-77
2023/03/19 09:30:05;;;;;;;1.80;1.30;;;17.50;27.30;;;;;;5027029;28;20267;-74
2023/03/19 09:32:34;;;;;;;1.97;1.33;;;16.90;29.70;;;;;;5026460;28;20537;-78
2023/03/19 09:35:00;;;;;;;1.80;1.30;;;17.30;27.60;;;;;;5029484;28;20452;-71
2023/03/19 09:37:25;;;;;;;2.10;1.37;;;17.80;27.30;;;;;;5033698;28;20448;-75
2023/03/19 09:39:51;;;;;;;2.00;1.40;;;17.90;26.90;;;;;;5023343;28;20726;-74
2023/03/19 09:42:26;;;;;;;1.80;1.30;;;18.20;27.30;;;;;;5027447;28;20233;-74
2023/03/19 09:44:52;;;;;;;1.90;1.30;;;17.90;26.70;;;;;;5025928;28;20175;-78
2023/03/19 09:47:26;;;;;;;1.80;1.20;;;17.60;28.50;;;;;;5027460;28;20856;-76
2023/03/19 09:50:05;;;;;;;1.80;1.20;;;17.70;27.30;;;;;;5029773;28;20560;-77
2023/03/19 09:52:48;;;;;;;1.93;1.30;;;18.20;27.20;;;;;;5028374;28;20848;-76
2023/03/19 09:55:23;;;;;;;1.90;1.20;;;18.30;24.90;;;;;;5029009;28;20535;-76
2023/03/19 09:57:50;;;;;;;1.97;1.23;;;18.80;25.00;;;;;;5029071;28;20600;-77
2023/03/19 10:00:24;;;;;;;2.07;1.40;;;18.90;24.60;;;;;;5028817;28;20837;-78
2023/03/19 10:03:05;;;;;;;2.80;1.60;;;19.20;24.20;;;;;;5030502;28;21256;-76
2023/03/19 10:05:59;;;;;;;2.10;1.30;;;19.20;22.40;;;;;;5031164;28;20475;-77
2023/03/19 10:08:55;;;;;;;2.30;1.30;;;18.90;23.00;;;;;;5034082;28;20412;-77
2023/03/19 10:11:44;;;;;;;2.00;1.20;;;18.80;23.50;;;;;;5031485;28;20913;-73
2023/03/19 10:14:51;;;;;;;2.30;1.40;;;18.70;22.80;;;;;;5022877;28;21002;-77
2023/03/19 10:17:23;;;;;;;2.10;1.20;;;19.40;22.90;;;;;;4997541;28;20493;-74
2023/03/19 10:20:15;;;;;;;1.97;1.10;;;19.80;22.40;;;;;;5035379;28;20441;-77
2023/03/19 10:22:46;;;;;;;2.40;1.40;;;20.40;20.50;;;;;;5023918;28;20422;-79
2023/03/19 10:25:21;;;;;;;2.20;1.40;;;19.90;21.60;;;;;;5029877;28;20428;-77
2023/03/19 10:27:54;;;;;;;2.20;1.30;;;19.60;24.90;;;;;;5030799;28;20430;-79
2023/03/19 10:30:20;;;;;;;2.30;1.20;;;20.20;22.00;;;;;;5032145;28;20884;-77
2023/03/19 10:32:53;;;;;;;2.33;1.30;;;19.90;20.50;;;;;;5027106;28;20428;-77
2023/03/19 10:35:26;;;;;;;2.47;1.20;;;19.50;21.70;;;;;;5028273;28;20428;-79
2023/03/19 10:37:54;;;;;;;3.00;1.60;;;19.00;22.20;;;;;;5031934;28;20461;-78
2023/03/19 10:40:38;;;;;;;3.20;1.70;;;19.50;21.40;;;;;;5033230;28;20415;-80
2023/03/19 10:43:21;;;;;;;2.47;1.20;;;20.60;19.60;;;;;;5033019;28;20492;-79
2023/03/19 10:45:48;;;;;;;4.50;2.13;;;21.00;19.00;;;;;;5041228;28;20508;-77
2023/03/19 10:48:16;;;;;;;2.60;1.20;;;20.80;19.80;;;;;;5022292;28;20457;-75
2023/03/19 10:50:59;;;;;;;3.00;1.40;;;20.70;22.10;;;;;;5028856;28;20476;-74
2023/03/19 10:53:31;;;;;;;2.90;1.30;;;21.00;19.10;;;;;;5031684;28;20779;-76
2023/03/19 10:56:04;;;;;;;3.63;1.60;;;20.40;19.50;;;;;;5032169;28;20441;-74
2023/03/19 10:58:34;;;;;;;2.97;1.30;;;21.10;19.70;;;;;;5031340;28;20832;-74
2023/03/19 11:01:10;;;;;;;3.77;1.40;;;21.30;19.20;;;;;;5031070;28;20439;-74
2023/03/19 11:03:57;;;;;;;3.30;1.50;;;20.90;19.10;;;;;;5031673;28;21047;-74
2023/03/19 11:06:31;;;;;;;3.10;1.30;;;20.90;18.40;;;;;;5026836;28;21061;-75
2023/03/19 11:08:58;;;;;;;4.03;1.60;;;21.90;17.80;;;;;;5031168;28;20435;-73
2023/03/19 11:11:31;;;;;;;3.20;1.30;;;20.90;18.40;;;;;;5042469;28;20465;-73
2023/03/19 11:13:57;;;;;;;3.40;1.40;;;19.60;20.10;;;;;;5035070;28;20405;-75
2023/03/19 11:16:23;;;;;;;3.20;1.30;;;21.00;19.00;;;;;;5034360;28;20954;-76
2023/03/19 11:18:49;;;;;;;3.33;1.33;;;20.00;19.50;;;;;;5033412;28;20209;-74
2023/03/19 11:21:29;;;;;;;3.47;1.43;;;19.10;21.00;;;;;;5027816;28;20974;-76
2023/03/19 11:24:03;;;;;;;6.00;1.77;;;18.30;21.80;;;;;;5041052;28;20212;-75
2023/03/19 11:26:29;;;;;;;3.10;1.23;;;18.20;22.10;;;;;;5031253;28;20442;-75
2023/03/19 11:29:02;;;;;;;3.33;1.43;;;18.60;22.00;;;;;;5036178;28;20823;-75
2023/03/19 11:31:43;;;;;;;3.03;1.20;;;18.40;21.80;;;;;;5023832;28;20462;-72
2023/03/19 11:35:03;;;;;;;3.03;1.33;;;18.10;22.70;;;;;;5028619;28;20523;-72
2023/03/19 11:37:57;;;;;;;2.90;1.30;;;18.30;22.60;;;;;;4974449;28;20444;-73
2023/03/19 11:40:43;;;;;;;2.93;1.27;;;18.20;22.30;;;;;;4968972;28;20856;-74
2023/03/19 11:43:37;;;;;;;3.83;1.60;;;19.40;21.30;;;;;;4975392;28;20443;-74
2023/03/19 11:46:53;;;;;;;3.17;1.27;;;20.50;19.80;;;;;;4972274;28;20844;-74
2023/03/19 11:49:54;;;;;;;3.30;1.40;;;20.70;19.40;;;;;;4935999;29;20444;-75
2023/03/19 11:52:36;;;;;;;3.40;1.33;;;22.40;18.10;;;;;;4919598;29;20474;-74
2023/03/19 11:55:31;;;;;;;3.50;1.37;;;20.90;19.10;;;;;;4938390;29;20447;-75
2023/03/19 11:58:26;;;;;;;3.20;1.20;;;21.70;17.40;;;;;;4931521;29;20525;-75
2023/03/19 12:01:22;;;;;;;4.03;1.47;;;21.30;18.20;;;;;;4927572;29;20553;-76
2023/03/19 12:04:01;;;;;;;3.57;1.43;;;21.70;18.10;;;;;;4927102;29;20937;-75
2023/03/19 12:07:03;;;;;;;3.50;1.50;;;23.30;16.40;;;;;;4933933;29;20426;-75
2023/03/19 12:10:12;;;;;;;3.60;1.30;;;23.70;16.40;;;;;;4933551;29;20538;-75
2023/03/19 12:13:03;;;;;;;3.47;1.33;;;25.10;14.70;;;;;;4933031;29;20535;-75
2023/03/19 12:15:45;;;;;;;3.50;1.40;;;23.80;15.50;;;;;;4924697;29;20435;-75
2023/03/19 12:18:22;;;;;;;3.50;1.40;;;24.20;15.70;;;;;;4923433;29;20498;-75
2023/03/19 12:20:53;;;;;;;3.60;1.37;;;24.80;15.70;;;;;;4914275;29;20439;-75
2023/03/19 12:23:38;;;;;;;4.07;1.47;;;25.00;14.90;;;;;;4914531;29;20452;-75
2023/03/19 12:26:05;;;;;;;3.70;1.20;;;25.50;14.10;;;;;;4937902;29;20452;-75
2023/03/19 12:28:38;;;;;;;4.10;1.50;;;22.50;16.80;;;;;;4952724;29;20575;-75
2023/03/19 12:31:22;;;;;;;3.90;1.30;;;23.90;15.60;;;;;;4932961;29;20460;-76
2023/03/19 12:34:09;;;;;;;4.30;1.50;;;24.40;16.00;;;;;;4933483;29;20426;-75
2023/03/19 12:36:44;;;;;;;4.10;1.50;;;25.30;14.10;;;;;;4942571;29;20438;-75
2023/03/19 12:39:14;;;;;;;3.73;1.20;;;25.10;14.20;;;;;;4952722;29;20912;-75
2023/03/19 12:41:43;;;;;;;4.30;1.50;;;24.10;15.60;;;;;;4952538;29;20439;-75
2023/03/19 12:44:20;;;;;;;3.80;1.30;;;24.50;14.80;;;;;;5017766;28;20414;-75
2023/03/19 12:47:10;;;;;;;3.80;1.33;;;24.50;15.50;;;;;;5036347;28;20905;-76
2023/03/19 12:49:41;;;;;;;3.60;1.30;;;23.30;16.10;;;;;;5032606;28;20415;-74
2023/03/19 12:52:19;;;;;;;3.60;1.30;;;23.80;15.50;;;;;;5032367;28;20454;-76
2023/03/19 12:55:07;;;;;;;3.60;1.27;;;24.00;15.10;;;;;;5032607;28;20425;-76
2023/03/19 12:57:52;;;;;;;3.60;1.30;;;24.70;15.00;;;;;;5031601;28;20858;-76
2023/03/19 13:00:53;;;;;;;3.60;1.30;;;24.70;16.30;;;;;;5028586;28;20602;-76
2023/03/19 13:03:28;;;;;;;3.40;1.30;;;23.80;15.30;;;;;;4985151;28;20434;-75